sensor_id;sensor_type;location;lat;lon;timestamp;pressure;altitude;pressure_sealevel;temperature;humidity
43480;BME280;29067;35.492;-97.520;2024-02-16T00:01:47;97305.34;;;11.84;36.51
43480;BME280;29067;35.492;-97.520;2024-02-16T00:04:14;97308.06;;;11.47;36.73
43480;BME280;29067;35.492;-97.520;2024-02-16T00:06:42;97305.83;;;11.54;36.24
43480;BME280;29067;35.492;-97.520;2024-02-16T00:09:10;97300.70;;;11.32;37.60
43480;BME280;29067;35.492;-97.520;2024-02-16T00:11:38;97298.92;;;11.20;37.23
43480;BME280;29067;35.492;-97.520;2024-02-16T00:14:05;97304.24;;;12.62;36.56
43480;BME280;29067;35.492;-97.520;2024-02-16T00:16:33;97305.28;;;11.64;36.99
43480;BME280;29067;35.492;-97.520;2024-02-16T00:19:01;97308.16;;;11.58;37.15
43480;BME280;29067;35.492;-97.520;2024-02-16T00:21:29;97305.36;;;11.61;37.25
43480;BME280;29067;35.492;-97.520;2024-02-16T00:23:56;97302.82;;;10.67;37.99
43480;BME280;29067;35.492;-97.520;2024-02-16T00:26:24;97305.65;;;10.65;38.11
43480;BME280;29067;35.492;-97.520;2024-02-16T00:28:52;97309.22;;;10.23;39.07
43480;BME280;29067;35.492;-97.520;2024-02-16T00:31:20;97306.64;;;11.73;37.98
43480;BME280;29067;35.492;-97.520;2024-02-16T00:33:48;97314.85;;;9.73;39.45
43480;BME280;29067;35.492;-97.520;2024-02-16T00:36:16;97313.70;;;11.48;38.30
43480;BME280;29067;35.492;-97.520;2024-02-16T00:38:44;97316.59;;;10.03;40.01
43480;BME280;29067;35.492;-97.520;2024-02-16T00:41:18;97321.31;;;9.18;41.98
43480;BME280;29067;35.492;-97.520;2024-02-16T00:43:47;97322.30;;;9.00;42.00
43480;BME280;29067;35.492;-97.520;2024-02-16T00:46:15;97329.57;;;7.93;44.52
43480;BME280;29067;35.492;-97.520;2024-02-16T00:48:43;97313.77;;;9.15;43.04
43480;BME280;29067;35.492;-97.520;2024-02-16T00:51:11;97321.36;;;9.11;42.97
43480;BME280;29067;35.492;-97.520;2024-02-16T00:53:39;97306.32;;;9.89;41.90
43480;BME280;29067;35.492;-97.520;2024-02-16T00:56:07;97304.02;;;9.24;42.72
43480;BME280;29067;35.492;-97.520;2024-02-16T00:58:35;97306.69;;;9.40;42.46
43480;BME280;29067;35.492;-97.520;2024-02-16T01:01:04;97284.11;;;9.27;42.42
43480;BME280;29067;35.492;-97.520;2024-02-16T01:03:32;97282.92;;;9.73;42.05
43480;BME280;29067;35.492;-97.520;2024-02-16T01:06:00;97286.58;;;9.76;41.82
43480;BME280;29067;35.492;-97.520;2024-02-16T01:08:28;97275.18;;;8.24;43.16
43480;BME280;29067;35.492;-97.520;2024-02-16T01:10:56;97277.62;;;8.64;43.87
43480;BME280;29067;35.492;-97.520;2024-02-16T01:13:24;97290.67;;;8.14;43.53
43480;BME280;29067;35.492;-97.520;2024-02-16T01:15:52;97292.45;;;8.17;43.76
43480;BME280;29067;35.492;-97.520;2024-02-16T01:18:19;97267.79;;;8.64;43.21
43480;BME280;29067;35.492;-97.520;2024-02-16T01:20:47;97269.37;;;8.52;42.99
43480;BME280;29067;35.492;-97.520;2024-02-16T01:23:15;97278.25;;;9.18;43.19
43480;BME280;29067;35.492;-97.520;2024-02-16T01:25:43;97280.63;;;7.90;44.27
43480;BME280;29067;35.492;-97.520;2024-02-16T01:28:11;97276.67;;;7.68;45.03
43480;BME280;29067;35.492;-97.520;2024-02-16T01:30:40;97269.96;;;7.86;44.81
43480;BME280;29067;35.492;-97.520;2024-02-16T01:33:08;97262.94;;;7.81;44.56
43480;BME280;29067;35.492;-97.520;2024-02-16T01:35:36;97262.96;;;8.78;44.02
43480;BME280;29067;35.492;-97.520;2024-02-16T01:38:04;97261.05;;;8.69;44.15
43480;BME280;29067;35.492;-97.520;2024-02-16T01:40:32;97258.37;;;9.36;43.48
43480;BME280;29067;35.492;-97.520;2024-02-16T01:43:00;97261.21;;;8.56;43.86
43480;BME280;29067;35.492;-97.520;2024-02-16T01:45:28;97259.39;;;9.13;43.91
43480;BME280;29067;35.492;-97.520;2024-02-16T01:47:56;97252.28;;;9.86;43.15
43480;BME280;29067;35.492;-97.520;2024-02-16T01:50:24;97251.55;;;9.26;42.61
43480;BME280;29067;35.492;-97.520;2024-02-16T01:52:52;97257.12;;;7.56;45.36
43480;BME280;29067;35.492;-97.520;2024-02-16T01:55:21;97258.32;;;7.68;45.74
43480;BME280;29067;35.492;-97.520;2024-02-16T01:57:49;97249.98;;;8.23;44.27
43480;BME280;29067;35.492;-97.520;2024-02-16T02:00:17;97251.36;;;7.22;45.89
43480;BME280;29067;35.492;-97.520;2024-02-16T02:02:45;97250.85;;;8.17;44.85
43480;BME280;29067;35.492;-97.520;2024-02-16T02:05:14;97255.39;;;8.25;44.33
43480;BME280;29067;35.492;-97.520;2024-02-16T02:07:42;97258.83;;;7.71;44.43
43480;BME280;29067;35.492;-97.520;2024-02-16T02:10:10;97264.07;;;8.17;44.47
43480;BME280;29067;35.492;-97.520;2024-02-16T02:12:38;97263.64;;;8.06;44.78
43480;BME280;29067;35.492;-97.520;2024-02-16T02:15:06;97260.71;;;8.17;44.23
43480;BME280;29067;35.492;-97.520;2024-02-16T02:17:35;97263.37;;;6.92;45.37
43480;BME280;29067;35.492;-97.520;2024-02-16T02:20:03;97270.73;;;7.20;45.88
43480;BME280;29067;35.492;-97.520;2024-02-16T02:22:31;97265.90;;;7.00;45.65
43480;BME280;29067;35.492;-97.520;2024-02-16T02:24:59;97271.06;;;7.47;45.55
43480;BME280;29067;35.492;-97.520;2024-02-16T02:27:27;97274.23;;;7.42;45.05
43480;BME280;29067;35.492;-97.520;2024-02-16T02:29:55;97274.78;;;7.16;45.44
43480;BME280;29067;35.492;-97.520;2024-02-16T02:32:22;97275.30;;;7.62;45.24
43480;BME280;29067;35.492;-97.520;2024-02-16T02:34:50;97277.77;;;7.29;45.55
43480;BME280;29067;35.492;-97.520;2024-02-16T02:37:19;97272.24;;;6.66;46.52
43480;BME280;29067;35.492;-97.520;2024-02-16T02:39:47;97268.11;;;7.33;45.55
43480;BME280;29067;35.492;-97.520;2024-02-16T02:42:14;97265.29;;;7.43;45.67
43480;BME280;29067;35.492;-97.520;2024-02-16T02:44:42;97259.86;;;5.83;47.33
43480;BME280;29067;35.492;-97.520;2024-02-16T02:47:10;97251.67;;;7.04;45.89
43480;BME280;29067;35.492;-97.520;2024-02-16T02:49:38;97248.15;;;6.56;46.52
43480;BME280;29067;35.492;-97.520;2024-02-16T02:52:05;97242.61;;;5.92;47.39
43480;BME280;29067;35.492;-97.520;2024-02-16T02:54:34;97237.20;;;7.51;45.91
43480;BME280;29067;35.492;-97.520;2024-02-16T02:57:02;97237.48;;;6.39;47.12
43480;BME280;29067;35.492;-97.520;2024-02-16T02:59:30;97236.97;;;6.26;47.20
43480;BME280;29067;35.492;-97.520;2024-02-16T03:01:58;97241.85;;;7.23;46.42
43480;BME280;29067;35.492;-97.520;2024-02-16T03:04:25;97251.53;;;6.78;46.20
43480;BME280;29067;35.492;-97.520;2024-02-16T03:06:53;97263.99;;;7.42;45.72
43480;BME280;29067;35.492;-97.520;2024-02-16T03:09:21;97265.06;;;7.73;45.11
43480;BME280;29067;35.492;-97.520;2024-02-16T03:11:49;97267.09;;;6.27;46.54
43480;BME280;29067;35.492;-97.520;2024-02-16T03:14:17;97270.49;;;5.78;48.02
43480;BME280;29067;35.492;-97.520;2024-02-16T03:16:45;97272.37;;;5.79;48.00
43480;BME280;29067;35.492;-97.520;2024-02-16T03:19:13;97270.18;;;6.31;46.94
43480;BME280;29067;35.492;-97.520;2024-02-16T03:21:41;97278.96;;;6.00;48.03
43480;BME280;29067;35.492;-97.520;2024-02-16T03:24:08;97274.98;;;6.36;47.30
43480;BME280;29067;35.492;-97.520;2024-02-16T03:26:36;97274.54;;;7.23;46.70
43480;BME280;29067;35.492;-97.520;2024-02-16T03:29:04;97271.29;;;5.33;48.92
43480;BME280;29067;35.492;-97.520;2024-02-16T03:31:32;97256.82;;;5.84;48.16
43480;BME280;29067;35.492;-97.520;2024-02-16T03:34:00;97258.26;;;6.28;47.37
43480;BME280;29067;35.492;-97.520;2024-02-16T03:36:28;97258.82;;;6.11;47.66
43480;BME280;29067;35.492;-97.520;2024-02-16T03:38:56;97257.32;;;4.96;48.12
43480;BME280;29067;35.492;-97.520;2024-02-16T03:41:24;97252.75;;;4.72;48.76
43480;BME280;29067;35.492;-97.520;2024-02-16T03:43:52;97258.73;;;5.03;49.89
43480;BME280;29067;35.492;-97.520;2024-02-16T03:46:19;97252.60;;;4.01;50.70
43480;BME280;29067;35.492;-97.520;2024-02-16T03:48:48;97251.85;;;5.17;50.04
43480;BME280;29067;35.492;-97.520;2024-02-16T03:51:15;97253.59;;;5.84;48.86
43480;BME280;29067;35.492;-97.520;2024-02-16T03:53:43;97253.83;;;6.48;47.99
43480;BME280;29067;35.492;-97.520;2024-02-16T03:56:11;97250.98;;;5.85;48.15
43480;BME280;29067;35.492;-97.520;2024-02-16T03:58:39;97244.84;;;6.81;47.13
43480;BME280;29067;35.492;-97.520;2024-02-16T04:01:07;97255.28;;;5.21;48.95
43480;BME280;29067;35.492;-97.520;2024-02-16T04:03:34;97251.47;;;5.70;48.11
43480;BME280;29067;35.492;-97.520;2024-02-16T04:06:02;97251.76;;;5.34;50.36
43480;BME280;29067;35.492;-97.520;2024-02-16T04:08:31;97245.91;;;5.91;48.89
43480;BME280;29067;35.492;-97.520;2024-02-16T04:10:59;97242.90;;;5.66;49.21
43480;BME280;29067;35.492;-97.520;2024-02-16T04:13:27;97232.90;;;6.37;48.33
43480;BME280;29067;35.492;-97.520;2024-02-16T04:15:55;97233.89;;;6.95;47.34
43480;BME280;29067;35.492;-97.520;2024-02-16T04:18:23;97237.14;;;5.67;48.24
43480;BME280;29067;35.492;-97.520;2024-02-16T04:20:51;97235.56;;;6.58;47.68
43480;BME280;29067;35.492;-97.520;2024-02-16T04:23:18;97237.28;;;6.69;47.63
43480;BME280;29067;35.492;-97.520;2024-02-16T04:25:46;97240.17;;;5.57;49.35
43480;BME280;29067;35.492;-97.520;2024-02-16T04:28:15;97239.83;;;6.01;48.93
43480;BME280;29067;35.492;-97.520;2024-02-16T04:30:42;97239.94;;;6.04;48.43
43480;BME280;29067;35.492;-97.520;2024-02-16T04:33:11;97234.29;;;5.47;49.15
43480;BME280;29067;35.492;-97.520;2024-02-16T04:35:39;97221.93;;;6.18;47.90
43480;BME280;29067;35.492;-97.520;2024-02-16T04:38:07;97224.85;;;5.30;49.24
43480;BME280;29067;35.492;-97.520;2024-02-16T04:40:37;97220.17;;;5.21;48.52
43480;BME280;29067;35.492;-97.520;2024-02-16T04:43:05;97213.81;;;6.13;48.30
43480;BME280;29067;35.492;-97.520;2024-02-16T04:45:33;97217.56;;;5.81;48.85
43480;BME280;29067;35.492;-97.520;2024-02-16T04:48:03;97212.36;;;5.12;49.04
43480;BME280;29067;35.492;-97.520;2024-02-16T04:50:32;97206.77;;;6.96;47.47
43480;BME280;29067;35.492;-97.520;2024-02-16T04:53:01;97211.50;;;4.23;50.19
43480;BME280;29067;35.492;-97.520;2024-02-16T04:55:30;97201.28;;;5.66;48.15
43480;BME280;29067;35.492;-97.520;2024-02-16T04:57:58;97199.70;;;6.44;47.54
43480;BME280;29067;35.492;-97.520;2024-02-16T05:00:26;97199.82;;;6.02;48.71
43480;BME280;29067;35.492;-97.520;2024-02-16T05:02:54;97201.88;;;5.25;48.79
43480;BME280;29067;35.492;-97.520;2024-02-16T05:05:23;97194.89;;;6.41;48.20
43480;BME280;29067;35.492;-97.520;2024-02-16T05:07:50;97191.06;;;5.41;48.72
43480;BME280;29067;35.492;-97.520;2024-02-16T05:10:18;97176.80;;;6.63;47.11
43480;BME280;29067;35.492;-97.520;2024-02-16T05:12:46;97174.49;;;7.72;46.17
43480;BME280;29067;35.492;-97.520;2024-02-16T05:15:14;97167.34;;;7.86;45.47
43480;BME280;29067;35.492;-97.520;2024-02-16T05:17:42;97162.07;;;7.41;45.33
43480;BME280;29067;35.492;-97.520;2024-02-16T05:20:11;97165.21;;;3.84;50.53
43480;BME280;29067;35.492;-97.520;2024-02-16T05:22:39;97159.36;;;4.56;49.31
43480;BME280;29067;35.492;-97.520;2024-02-16T05:25:09;97156.52;;;4.58;50.51
43480;BME280;29067;35.492;-97.520;2024-02-16T05:27:37;97155.27;;;3.35;51.97
43480;BME280;29067;35.492;-97.520;2024-02-16T05:30:06;97145.09;;;4.78;50.37
43480;BME280;29067;35.492;-97.520;2024-02-16T05:32:37;97132.17;;;5.49;48.57
43480;BME280;29067;35.492;-97.520;2024-02-16T05:35:06;97125.21;;;5.19;49.39
43480;BME280;29067;35.492;-97.520;2024-02-16T05:37:34;97129.53;;;2.73;53.69
43480;BME280;29067;35.492;-97.520;2024-02-16T05:40:03;97114.91;;;4.65;50.74
43480;BME280;29067;35.492;-97.520;2024-02-16T05:42:31;97102.39;;;5.44;49.58
43480;BME280;29067;35.492;-97.520;2024-02-16T05:44:59;97099.52;;;4.71;50.53
43480;BME280;29067;35.492;-97.520;2024-02-16T05:47:28;97097.26;;;5.06;49.30
43480;BME280;29067;35.492;-97.520;2024-02-16T05:49:56;97094.82;;;5.22;49.93
43480;BME280;29067;35.492;-97.520;2024-02-16T05:52:24;97100.16;;;3.89;51.95
43480;BME280;29067;35.492;-97.520;2024-02-16T05:54:52;97087.97;;;6.44;48.35
43480;BME280;29067;35.492;-97.520;2024-02-16T05:57:20;97084.56;;;6.47;47.82
43480;BME280;29067;35.492;-97.520;2024-02-16T05:59:48;97079.47;;;6.70;48.21
43480;BME280;29067;35.492;-97.520;2024-02-16T06:02:16;97076.96;;;4.81;49.80
43480;BME280;29067;35.492;-97.520;2024-02-16T06:04:44;97074.68;;;6.36;48.49
43480;BME280;29067;35.492;-97.520;2024-02-16T06:07:12;97061.31;;;5.38;50.30
43480;BME280;29067;35.492;-97.520;2024-02-16T06:09:40;97068.32;;;4.95;50.66
43480;BME280;29067;35.492;-97.520;2024-02-16T06:12:08;97068.55;;;5.13;50.49
43480;BME280;29067;35.492;-97.520;2024-02-16T06:14:36;97066.41;;;5.75;49.75
43480;BME280;29067;35.492;-97.520;2024-02-16T06:17:05;97062.40;;;5.87;49.04
43480;BME280;29067;35.492;-97.520;2024-02-16T06:19:33;97068.12;;;5.38;50.04
43480;BME280;29067;35.492;-97.520;2024-02-16T06:22:02;97066.09;;;5.12;50.86
43480;BME280;29067;35.492;-97.520;2024-02-16T06:24:30;97058.69;;;5.91;49.57
43480;BME280;29067;35.492;-97.520;2024-02-16T06:26:58;97064.85;;;3.74;52.09
43480;BME280;29067;35.492;-97.520;2024-02-16T06:29:26;97062.72;;;4.38;52.51
43480;BME280;29067;35.492;-97.520;2024-02-16T06:31:54;97051.79;;;4.22;52.82
43480;BME280;29067;35.492;-97.520;2024-02-16T06:34:23;97047.07;;;5.68;49.96
43480;BME280;29067;35.492;-97.520;2024-02-16T06:36:51;97039.13;;;4.54;51.21
43480;BME280;29067;35.492;-97.520;2024-02-16T06:39:19;97037.13;;;3.57;53.17
43480;BME280;29067;35.492;-97.520;2024-02-16T06:41:47;97034.27;;;3.81;53.51
43480;BME280;29067;35.492;-97.520;2024-02-16T06:44:16;97020.64;;;5.26;51.38
43480;BME280;29067;35.492;-97.520;2024-02-16T06:46:44;97022.00;;;4.17;53.49
43480;BME280;29067;35.492;-97.520;2024-02-16T06:49:13;97010.81;;;4.02;53.45
43480;BME280;29067;35.492;-97.520;2024-02-16T06:51:40;96999.60;;;4.37;53.11
43480;BME280;29067;35.492;-97.520;2024-02-16T06:54:08;96996.71;;;5.31;52.95
43480;BME280;29067;35.492;-97.520;2024-02-16T06:56:36;96994.90;;;4.36;53.93
43480;BME280;29067;35.492;-97.520;2024-02-16T06:59:04;96989.85;;;4.33;53.10
43480;BME280;29067;35.492;-97.520;2024-02-16T07:01:32;96984.60;;;4.32;53.87
43480;BME280;29067;35.492;-97.520;2024-02-16T07:04:00;96980.74;;;4.07;54.91
43480;BME280;29067;35.492;-97.520;2024-02-16T07:06:28;96971.31;;;3.36;56.49
43480;BME280;29067;35.492;-97.520;2024-02-16T07:08:57;96962.38;;;4.04;56.84
43480;BME280;29067;35.492;-97.520;2024-02-16T07:11:24;96955.05;;;3.25;58.30
43480;BME280;29067;35.492;-97.520;2024-02-16T07:13:52;96948.91;;;3.61;56.46
43480;BME280;29067;35.492;-97.520;2024-02-16T07:16:20;96941.41;;;4.33;56.40
43480;BME280;29067;35.492;-97.520;2024-02-16T07:18:48;96936.00;;;4.26;56.04
43480;BME280;29067;35.492;-97.520;2024-02-16T07:21:16;96936.12;;;5.13;55.09
43480;BME280;29067;35.492;-97.520;2024-02-16T07:23:44;96934.85;;;2.78;57.62
43480;BME280;29067;35.492;-97.520;2024-02-16T07:26:12;96924.93;;;4.05;57.30
43480;BME280;29067;35.492;-97.520;2024-02-16T07:28:40;96917.49;;;4.18;55.45
43480;BME280;29067;35.492;-97.520;2024-02-16T07:31:08;96912.29;;;4.74;55.24
43480;BME280;29067;35.492;-97.520;2024-02-16T07:33:36;96904.87;;;4.20;55.58
43480;BME280;29067;35.492;-97.520;2024-02-16T07:36:04;96899.45;;;5.53;53.75
43480;BME280;29067;35.492;-97.520;2024-02-16T07:38:33;96894.19;;;4.65;54.15
43480;BME280;29067;35.492;-97.520;2024-02-16T07:41:01;96894.72;;;4.73;53.78
43480;BME280;29067;35.492;-97.520;2024-02-16T07:43:29;96890.72;;;5.45;54.03
43480;BME280;29067;35.492;-97.520;2024-02-16T07:45:57;96884.95;;;5.23;54.10
43480;BME280;29067;35.492;-97.520;2024-02-16T07:48:25;96877.96;;;4.71;56.40
43480;BME280;29067;35.492;-97.520;2024-02-16T07:50:53;96878.21;;;4.60;57.01
43480;BME280;29067;35.492;-97.520;2024-02-16T07:53:21;96876.07;;;3.44;59.02
43480;BME280;29067;35.492;-97.520;2024-02-16T07:55:49;96868.94;;;4.73;57.02
43480;BME280;29067;35.492;-97.520;2024-02-16T07:58:17;96862.91;;;3.26;59.93
43480;BME280;29067;35.492;-97.520;2024-02-16T08:00:45;96853.92;;;4.44;58.73
43480;BME280;29067;35.492;-97.520;2024-02-16T08:03:13;96853.59;;;5.24;59.61
43480;BME280;29067;35.492;-97.520;2024-02-16T08:05:41;96846.58;;;5.33;59.54
43480;BME280;29067;35.492;-97.520;2024-02-16T08:08:09;96843.47;;;4.24;60.70
43480;BME280;29067;35.492;-97.520;2024-02-16T08:10:37;96845.69;;;4.56;59.25
43480;BME280;29067;35.492;-97.520;2024-02-16T08:13:05;96837.93;;;5.91;57.72
43480;BME280;29067;35.492;-97.520;2024-02-16T08:15:33;96837.34;;;5.99;57.19
43480;BME280;29067;35.492;-97.520;2024-02-16T08:18:01;96837.53;;;5.40;57.08
43480;BME280;29067;35.492;-97.520;2024-02-16T08:20:29;96835.86;;;5.64;56.39
43480;BME280;29067;35.492;-97.520;2024-02-16T08:22:57;96833.95;;;6.11;55.33
43480;BME280;29067;35.492;-97.520;2024-02-16T08:25:25;96834.13;;;5.52;55.83
43480;BME280;29067;35.492;-97.520;2024-02-16T08:27:53;96824.32;;;6.38;55.23
43480;BME280;29067;35.492;-97.520;2024-02-16T08:30:21;96824.60;;;5.50;55.92
43480;BME280;29067;35.492;-97.520;2024-02-16T08:32:49;96814.53;;;4.79;56.87
43480;BME280;29067;35.492;-97.520;2024-02-16T08:35:17;96807.32;;;4.77;56.25
43480;BME280;29067;35.492;-97.520;2024-02-16T08:37:45;96803.08;;;5.04;54.04
43480;BME280;29067;35.492;-97.520;2024-02-16T08:40:13;96797.82;;;6.00;53.56
43480;BME280;29067;35.492;-97.520;2024-02-16T08:42:41;96796.80;;;3.87;55.44
43480;BME280;29067;35.492;-97.520;2024-02-16T08:45:09;96787.82;;;5.75;52.59
43480;BME280;29067;35.492;-97.520;2024-02-16T08:47:37;96784.11;;;5.25;53.91
43480;BME280;29067;35.492;-97.520;2024-02-16T08:50:05;96777.96;;;5.39;53.05
43480;BME280;29067;35.492;-97.520;2024-02-16T08:52:33;96777.48;;;4.26;55.34
43480;BME280;29067;35.492;-97.520;2024-02-16T08:55:01;96779.20;;;4.35;56.46
43480;BME280;29067;35.492;-97.520;2024-02-16T08:57:31;96773.28;;;5.32;54.46
43480;BME280;29067;35.492;-97.520;2024-02-16T08:59:59;96767.57;;;5.44;54.51
43480;BME280;29067;35.492;-97.520;2024-02-16T09:02:27;96767.05;;;5.04;54.11
43480;BME280;29067;35.492;-97.520;2024-02-16T09:04:55;96772.45;;;4.26;55.08
43480;BME280;29067;35.492;-97.520;2024-02-16T09:07:23;96770.44;;;4.14;56.59
43480;BME280;29067;35.492;-97.520;2024-02-16T09:09:51;96769.15;;;4.19;56.64
43480;BME280;29067;35.492;-97.520;2024-02-16T09:12:19;96758.30;;;4.85;56.11
43480;BME280;29067;35.492;-97.520;2024-02-16T09:14:47;96753.37;;;4.02;56.00
43480;BME280;29067;35.492;-97.520;2024-02-16T09:17:15;96749.63;;;4.21;55.15
43480;BME280;29067;35.492;-97.520;2024-02-16T09:19:43;96746.96;;;4.61;55.48
43480;BME280;29067;35.492;-97.520;2024-02-16T09:22:11;96745.00;;;3.96;57.08
43480;BME280;29067;35.492;-97.520;2024-02-16T09:24:39;96738.87;;;3.33;58.03
43480;BME280;29067;35.492;-97.520;2024-02-16T09:27:07;96735.14;;;3.61;56.87
43480;BME280;29067;35.492;-97.520;2024-02-16T09:29:35;96733.54;;;3.42;57.64
43480;BME280;29067;35.492;-97.520;2024-02-16T09:32:03;96728.58;;;3.22;58.15
43480;BME280;29067;35.492;-97.520;2024-02-16T09:34:32;96716.18;;;3.91;57.98
43480;BME280;29067;35.492;-97.520;2024-02-16T09:37:00;96707.20;;;3.93;60.14
43480;BME280;29067;35.492;-97.520;2024-02-16T09:39:28;96694.77;;;4.75;63.72
43480;BME280;29067;35.492;-97.520;2024-02-16T09:41:55;96684.40;;;5.05;68.93
43480;BME280;29067;35.492;-97.520;2024-02-16T09:44:24;96677.49;;;4.41;72.07
43480;BME280;29067;35.492;-97.520;2024-02-16T09:46:54;96674.85;;;5.11;72.85
43480;BME280;29067;35.492;-97.520;2024-02-16T09:49:22;96672.25;;;4.69;72.67
43480;BME280;29067;35.492;-97.520;2024-02-16T09:51:50;96667.38;;;5.47;71.43
43480;BME280;29067;35.492;-97.520;2024-02-16T09:54:18;96656.69;;;6.02;72.51
43480;BME280;29067;35.492;-97.520;2024-02-16T09:56:46;96647.39;;;5.28;74.67
43480;BME280;29067;35.492;-97.520;2024-02-16T09:59:14;96647.24;;;4.72;76.00
43480;BME280;29067;35.492;-97.520;2024-02-16T10:01:42;96643.19;;;5.62;73.24
43480;BME280;29067;35.492;-97.520;2024-02-16T10:04:10;96653.85;;;4.39;80.05
43480;BME280;29067;35.492;-97.520;2024-02-16T10:06:46;96639.58;;;5.92;77.12
43480;BME280;29067;35.492;-97.520;2024-02-16T10:09:23;96642.58;;;4.89;80.13
43480;BME280;29067;35.492;-97.520;2024-02-16T10:11:52;96641.23;;;4.31;84.26
43480;BME280;29067;35.492;-97.520;2024-02-16T10:14:20;96631.69;;;5.44;80.26
43480;BME280;29067;35.492;-97.520;2024-02-16T10:16:58;96627.35;;;5.21;80.66
43480;BME280;29067;35.492;-97.520;2024-02-16T10:19:26;96624.16;;;5.38;80.22
43480;BME280;29067;35.492;-97.520;2024-02-16T10:21:54;96633.88;;;4.31;84.28
43480;BME280;29067;35.492;-97.520;2024-02-16T10:24:32;96634.35;;;4.44;88.35
43480;BME280;29067;35.492;-97.520;2024-02-16T10:27:00;96627.99;;;4.90;84.25
43480;BME280;29067;35.492;-97.520;2024-02-16T10:29:28;96624.98;;;4.35;89.48
43480;BME280;29067;35.492;-97.520;2024-02-16T10:31:58;96628.10;;;4.46;92.27
43480;BME280;29067;35.492;-97.520;2024-02-16T10:34:26;96622.32;;;4.91;91.52
43480;BME280;29067;35.492;-97.520;2024-02-16T10:36:56;96620.98;;;4.90;94.25
43480;BME280;29067;35.492;-97.520;2024-02-16T10:39:24;96600.84;;;4.82;91.08
43480;BME280;29067;35.492;-97.520;2024-02-16T10:41:54;96591.16;;;5.20;89.49
43480;BME280;29067;35.492;-97.520;2024-02-16T10:44:23;96586.99;;;5.51;90.41
43480;BME280;29067;35.492;-97.520;2024-02-16T10:46:51;96583.25;;;5.95;86.83
43480;BME280;29067;35.492;-97.520;2024-02-16T10:49:19;96593.67;;;4.27;96.42
43480;BME280;29067;35.492;-97.520;2024-02-16T10:51:48;96588.87;;;4.61;99.66
43480;BME280;29067;35.492;-97.520;2024-02-16T10:54:30;96571.98;;;4.90;96.09
43480;BME280;29067;35.492;-97.520;2024-02-16T10:57:00;96569.07;;;5.34;92.36
43480;BME280;29067;35.492;-97.520;2024-02-16T10:59:40;96566.71;;;5.16;95.50
43480;BME280;29067;35.492;-97.520;2024-02-16T11:02:09;96574.93;;;4.73;100.00
43480;BME280;29067;35.492;-97.520;2024-02-16T11:04:38;96582.59;;;5.30;99.17
43480;BME280;29067;35.492;-97.520;2024-02-16T11:07:12;96613.62;;;5.43;90.16
43480;BME280;29067;35.492;-97.520;2024-02-16T11:09:42;96718.53;;;4.33;95.06
43480;BME280;29067;35.492;-97.520;2024-02-16T11:12:13;96730.64;;;3.98;88.68
43480;BME280;29067;35.492;-97.520;2024-02-16T11:14:41;96683.84;;;4.97;74.56
43480;BME280;29067;35.492;-97.520;2024-02-16T11:17:11;96745.74;;;2.23;79.54
43480;BME280;29067;35.492;-97.520;2024-02-16T11:19:41;96715.25;;;3.31;73.68
43480;BME280;29067;35.492;-97.520;2024-02-16T11:22:10;96789.12;;;1.50;79.44
43480;BME280;29067;35.492;-97.520;2024-02-16T11:24:42;96773.71;;;1.83;78.75
43480;BME280;29067;35.492;-97.520;2024-02-16T11:27:12;96810.79;;;0.10;83.12
43480;BME280;29067;35.492;-97.520;2024-02-16T11:29:40;96827.70;;;0.88;80.13
43480;BME280;29067;35.492;-97.520;2024-02-16T11:32:08;96791.19;;;0.94;80.34
43480;BME280;29067;35.492;-97.520;2024-02-16T11:34:36;96834.98;;;-0.32;85.67
43480;BME280;29067;35.492;-97.520;2024-02-16T11:37:04;96835.17;;;-0.14;83.69
43480;BME280;29067;35.492;-97.520;2024-02-16T11:39:32;96821.96;;;-0.48;81.62
43480;BME280;29067;35.492;-97.520;2024-02-16T11:42:02;96830.75;;;1.37;77.01
43480;BME280;29067;35.492;-97.520;2024-02-16T11:44:32;96834.79;;;-0.29;78.43
43480;BME280;29067;35.492;-97.520;2024-02-16T11:47:01;96829.78;;;-0.01;81.38
43480;BME280;29067;35.492;-97.520;2024-02-16T11:49:30;96832.15;;;0.97;75.20
43480;BME280;29067;35.492;-97.520;2024-02-16T11:52:00;96834.11;;;0.42;75.68
43480;BME280;29067;35.492;-97.520;2024-02-16T11:54:28;96839.68;;;1.24;73.13
43480;BME280;29067;35.492;-97.520;2024-02-16T11:56:56;96847.92;;;0.32;74.37
43480;BME280;29067;35.492;-97.520;2024-02-16T11:59:23;96830.47;;;1.00;73.56
43480;BME280;29067;35.492;-97.520;2024-02-16T12:03:01;96833.07;;;1.52;70.90
43480;BME280;29067;35.492;-97.520;2024-02-16T12:05:29;96833.86;;;1.99;69.33
43480;BME280;29067;35.492;-97.520;2024-02-16T12:07:58;96842.70;;;1.08;68.92
43480;BME280;29067;35.492;-97.520;2024-02-16T12:10:26;96839.05;;;2.02;67.46
43480;BME280;29067;35.492;-97.520;2024-02-16T12:12:54;96848.09;;;2.50;65.47
43480;BME280;29067;35.492;-97.520;2024-02-16T12:15:22;96843.51;;;1.59;68.17
43480;BME280;29067;35.492;-97.520;2024-02-16T12:17:59;96855.41;;;1.36;67.46
43480;BME280;29067;35.492;-97.520;2024-02-16T12:20:27;96860.85;;;2.30;65.91
43480;BME280;29067;35.492;-97.520;2024-02-16T12:22:56;96874.19;;;1.37;66.89
43480;BME280;29067;35.492;-97.520;2024-02-16T12:25:24;96873.33;;;0.37;69.22
43480;BME280;29067;35.492;-97.520;2024-02-16T12:27:52;96871.03;;;2.02;67.67
43480;BME280;29067;35.492;-97.520;2024-02-16T12:30:20;96879.05;;;1.73;67.70
43480;BME280;29067;35.492;-97.520;2024-02-16T12:32:47;96880.59;;;1.36;69.43
43480;BME280;29067;35.492;-97.520;2024-02-16T12:35:15;96899.12;;;1.18;67.06
43480;BME280;29067;35.492;-97.520;2024-02-16T12:37:45;96919.30;;;0.84;69.69
43480;BME280;29067;35.492;-97.520;2024-02-16T12:40:13;96921.66;;;1.30;69.30
43480;BME280;29067;35.492;-97.520;2024-02-16T12:42:41;96946.61;;;-1.03;72.00
43480;BME280;29067;35.492;-97.520;2024-02-16T12:45:09;96936.09;;;0.42;70.58
43480;BME280;29067;35.492;-97.520;2024-02-16T12:47:37;96944.68;;;1.10;70.27
43480;BME280;29067;35.492;-97.520;2024-02-16T12:50:05;96939.77;;;1.13;68.93
43480;BME280;29067;35.492;-97.520;2024-02-16T12:52:34;96938.50;;;1.48;68.10
43480;BME280;29067;35.492;-97.520;2024-02-16T12:55:01;96947.83;;;0.26;69.98
43480;BME280;29067;35.492;-97.520;2024-02-16T12:57:29;96945.36;;;1.15;67.65